Time;durP1;ratioP1;P1;durP2;ratioP2;P2;SDS_P1;SDS_P2;PMS_P1;PMS_P2;Temp;Humidity;BMP_temperature;BMP_pressure;BME280_temperature;BME280_humidity;BME280_pressure;Samples;Min_cycle;Max_cycle;Signal;HPM_P1;HPM_P2
2023/08/17 00:00:08;;;;;;;11.20;8.23;;;;;21.30;96512.00;;;;8274834;28;20690;-81
2023/08/17 00:04:11;;;;;;;12.82;8.20;;;;;21.20;96517.00;;;;8263052;28;20234;-78
2023/08/17 00:08:17;;;;;;;11.90;8.68;;;;;21.00;96520.00;;;;8264345;28;20260;-78
2023/08/17 00:12:26;;;;;;;14.18;9.60;;;;;20.90;96515.00;;;;8256444;28;20230;-82
2023/08/17 00:16:30;;;;;;;12.70;9.13;;;;;20.70;96514.00;;;;8263898;28;20288;-78
2023/08/17 00:20:33;;;;;;;17.13;9.60;;;;;20.70;96522.00;;;;8276189;28;20202;-77
2023/08/17 00:24:41;;;;;;;13.10;9.18;;;;;20.80;96509.00;;;;8274440;28;20229;-79
2023/08/17 00:28:46;;;;;;;14.10;9.55;;;;;21.10;96508.00;;;;8286083;28;20321;-77
2023/08/17 00:32:50;;;;;;;14.68;9.02;;;;;21.30;96510.00;;;;8280473;28;20325;-78
2023/08/17 00:36:53;;;;;;;11.52;8.82;;;;;21.50;96508.00;;;;8279621;28;20210;-80
2023/08/17 00:40:58;;;;;;;12.23;7.82;;;;;21.70;96512.00;;;;8274913;28;20233;-78
2023/08/17 00:45:01;;;;;;;14.23;9.05;;;;;21.70;96507.00;;;;8281444;28;20265;-78
2023/08/17 00:49:04;;;;;;;13.15;9.38;;;;;21.70;96504.00;;;;8279805;28;20205;-78
2023/08/17 00:53:13;;;;;;;13.77;8.77;;;;;21.80;96505.00;;;;8279585;28;20220;-78
2023/08/17 00:57:21;;;;;;;12.57;8.82;;;;;21.70;96502.00;;;;8282670;28;20202;-78
2023/08/17 01:01:29;;;;;;;14.43;8.88;;;;;21.60;96498.00;;;;8277806;28;20253;-78
2023/08/17 01:05:34;;;;;;;15.48;9.07;;;;;21.60;96501.00;;;;8281565;28;20644;-78
2023/08/17 01:09:38;;;;;;;11.55;8.88;;;;;21.60;96509.00;;;;8279743;28;20286;-78
2023/08/17 01:13:57;;;;;;;12.15;8.85;;;;;21.50;96501.00;;;;8278720;28;20202;-78
2023/08/17 01:18:09;;;;;;;11.88;8.15;;;;;21.30;96500.00;;;;8278711;28;20198;-78
2023/08/17 01:22:18;;;;;;;17.98;8.68;;;;;21.10;96491.00;;;;8275882;28;20213;-78
2023/08/17 01:26:24;;;;;;;15.30;8.73;;;;;20.90;96493.00;;;;8277216;28;20230;-78
2023/08/17 01:30:28;;;;;;;17.25;9.55;;;;;20.80;96498.00;;;;8281183;28;20206;-79
2023/08/17 01:34:36;;;;;;;14.43;9.40;;;;;20.70;96507.00;;;;8281251;28;20312;-78
2023/08/17 01:38:41;;;;;;;16.08;9.52;;;;;20.50;96519.00;;;;8280891;28;20278;-79
2023/08/17 01:42:48;;;;;;;13.43;9.48;;;;;20.40;96502.00;;;;8274059;28;20281;-78
2023/08/17 01:46:59;;;;;;;16.60;10.45;;;;;20.30;96502.00;;;;8281782;28;20234;-79
2023/08/17 01:51:02;;;;;;;12.85;8.60;;;;;20.20;96497.00;;;;8277819;28;20305;-78
2023/08/17 01:55:06;;;;;;;13.52;9.00;;;;;20.10;96492.00;;;;8278866;28;20276;-78
2023/08/17 01:59:13;;;;;;;13.13;8.73;;;;;20.00;96493.00;;;;8277179;28;20207;-78
2023/08/17 02:03:20;;;;;;;12.70;9.35;;;;;19.90;96488.00;;;;8286085;28;20226;-77
2023/08/17 02:07:27;;;;;;;14.98;9.70;;;;;19.80;96501.00;;;;8285832;28;20265;-77
2023/08/17 02:11:30;;;;;;;13.95;9.75;;;;;19.70;96496.00;;;;8286942;28;20240;-78
2023/08/17 02:15:39;;;;;;;19.92;10.18;;;;;19.70;96498.00;;;;8284712;28;20248;-79
2023/08/17 02:19:42;;;;;;;16.17;11.15;;;;;19.60;96493.00;;;;8290443;28;20596;-78
2023/08/17 02:23:48;;;;;;;20.33;10.15;;;;;19.60;96493.00;;;;8285493;28;20198;-79
2023/08/17 02:27:51;;;;;;;16.23;11.38;;;;;19.50;96486.00;;;;8285511;28;20228;-78
2023/08/17 02:32:02;;;;;;;13.02;10.15;;;;;19.50;96477.00;;;;8284027;28;20932;-78
2023/08/17 02:36:06;;;;;;;15.88;10.52;;;;;19.40;96474.00;;;;8284625;28;20198;-79
2023/08/17 02:40:14;;;;;;;15.65;11.43;;;;;19.30;96469.00;;;;8285258;28;20763;-77
2023/08/17 02:44:18;;;;;;;20.52;13.23;;;;;19.30;96470.00;;;;8281102;28;20234;-77
2023/08/17 02:48:22;;;;;;;15.80;11.52;;;;;19.20;96474.00;;;;8279866;28;20222;-79
2023/08/17 02:52:29;;;;;;;17.20;10.63;;;;;19.20;96476.00;;;;8286488;28;20202;-78
2023/08/17 02:56:32;;;;;;;17.95;11.93;;;;;19.10;96469.00;;;;8283802;28;20210;-71
2023/08/17 03:00:36;;;;;;;19.42;12.80;;;;;19.00;96465.00;;;;8278387;28;20996;-68
2023/08/17 03:04:44;;;;;;;18.40;12.07;;;;;18.90;96468.00;;;;8327325;22;20316;-67
2023/08/17 03:08:47;;;;;;;22.42;14.88;;;;;18.90;96465.00;;;;8308958;28;20202;-68
2023/08/17 03:12:51;;;;;;;24.23;13.40;;;;;18.80;96468.00;;;;8319817;28;20276;-68
2023/08/17 03:16:54;;;;;;;26.80;14.90;;;;;18.80;96472.00;;;;8330631;28;20208;-69
2023/08/17 03:20:58;;;;;;;31.17;16.52;;;;;18.90;96477.00;;;;8316967;28;20205;-68
2023/08/17 03:25:02;;;;;;;30.92;16.45;;;;;19.20;96488.00;;;;8313487;28;20794;-69
2023/08/17 03:29:05;;;;;;;23.92;14.32;;;;;19.50;96501.00;;;;8328320;28;20196;-68
2023/08/17 03:33:09;;;;;;;17.20;11.70;;;;;19.60;96510.00;;;;8318761;28;20716;-69
2023/08/17 03:37:17;;;;;;;14.13;10.60;;;;;19.50;96508.00;;;;8312200;28;20259;-69
2023/08/17 03:41:23;;;;;;;19.63;12.48;;;;;19.40;96499.00;;;;8332998;28;20201;-69
2023/08/17 03:45:26;;;;;;;23.23;12.55;;;;;19.30;96500.00;;;;8324806;28;20556;-70
2023/08/17 03:49:34;;;;;;;19.27;12.70;;;;;19.20;96493.00;;;;8338564;28;20196;-69
2023/08/17 03:53:39;;;;;;;20.83;13.65;;;;;19.20;96485.00;;;;8305871;28;20200;-69
2023/08/17 03:57:42;;;;;;;20.00;14.05;;;;;19.30;96484.00;;;;8338084;28;20201;-69
2023/08/17 04:01:47;;;;;;;25.10;14.80;;;;;19.40;96486.00;;;;8324076;28;20774;-70
2023/08/17 04:05:51;;;;;;;21.98;12.45;;;;;19.40;96483.00;;;;8345326;28;20227;-70
2023/08/17 04:09:57;;;;;;;18.73;12.15;;;;;19.30;96475.00;;;;8341186;28;20287;-70
2023/08/17 04:14:00;;;;;;;16.55;11.10;;;;;19.20;96485.00;;;;8337280;28;20621;-70
2023/08/17 04:18:07;;;;;;;19.30;12.32;;;;;19.20;96484.00;;;;8348606;28;20204;-68
2023/08/17 04:22:13;;;;;;;17.90;11.80;;;;;19.20;96483.00;;;;8343274;28;20259;-69
2023/08/17 04:26:17;;;;;;;19.70;11.57;;;;;19.20;96476.00;;;;8350381;28;20220;-69
2023/08/17 04:30:20;;;;;;;28.25;11.60;;;;;19.20;96488.00;;;;8345973;28;20624;-69
2023/08/17 04:34:26;;;;;;;17.05;11.10;;;;;19.20;96492.00;;;;8350387;28;20202;-69
2023/08/17 04:38:31;;;;;;;18.08;11.45;;;;;19.30;96498.00;;;;8345632;28;20280;-69
2023/08/17 04:42:38;;;;;;;19.95;10.85;;;;;19.30;96499.00;;;;8355922;28;20287;-69
2023/08/17 04:46:47;;;;;;;15.98;10.45;;;;;19.40;96509.00;;;;8336799;28;20217;-69
2023/08/17 04:50:52;;;;;;;18.35;10.40;;;;;19.50;96507.00;;;;8349320;28;20224;-69
2023/08/17 04:54:55;;;;;;;14.80;11.18;;;;;19.70;96506.00;;;;8350587;28;20223;-69
2023/08/17 04:58:59;;;;;;;22.10;11.30;;;;;19.80;96502.00;;;;8363323;28;20205;-69
2023/08/17 05:03:08;;;;;;;16.52;10.73;;;;;19.90;96499.00;;;;8350194;28;20236;-69
2023/08/17 05:07:25;;;;;;;14.43;10.70;;;;;20.10;96515.00;;;;8343531;28;20615;-70
2023/08/17 05:11:29;;;;;;;16.65;10.45;;;;;20.30;96511.00;;;;8342517;28;20204;-68
2023/08/17 05:15:36;;;;;;;18.00;11.30;;;;;20.50;96514.00;;;;8331750;28;20205;-68
2023/08/17 05:19:41;;;;;;;21.75;11.23;;;;;20.70;96511.00;;;;8347007;28;20553;-68
2023/08/17 05:23:44;;;;;;;14.23;10.48;;;;;20.90;96521.00;;;;8350932;28;20783;-68
2023/08/17 05:27:51;;;;;;;13.23;11.15;;;;;21.20;96515.00;;;;8347269;28;20252;-68
2023/08/17 05:31:56;;;;;;;19.55;10.27;;;;;21.40;96518.00;;;;8348743;28;20794;-68
2023/08/17 05:36:01;;;;;;;13.40;10.77;;;;;21.60;96522.00;;;;8348635;28;20208;-69
2023/08/17 05:40:05;;;;;;;17.70;10.65;;;;;21.70;96515.00;;;;8351841;28;20287;-68
2023/08/17 05:44:14;;;;;;;14.20;10.15;;;;;21.80;96507.00;;;;8357712;28;20865;-69
2023/08/17 05:48:21;;;;;;;12.50;8.95;;;;;21.90;96506.00;;;;8351435;28;20236;-68
2023/08/17 05:52:29;;;;;;;13.32;9.55;;;;;21.70;96513.00;;;;8357518;28;20200;-68
2023/08/17 05:56:32;;;;;;;15.65;9.45;;;;;21.60;96517.00;;;;8347920;28;20197;-69
2023/08/17 06:00:37;;;;;;;16.13;9.07;;;;;21.60;96519.00;;;;8348773;28;20240;-69
2023/08/17 06:04:44;;;;;;;14.23;10.13;;;;;21.60;96522.00;;;;8346953;28;20316;-70
2023/08/17 06:08:49;;;;;;;12.55;10.27;;;;;21.60;96530.00;;;;8347476;28;20221;-68
2023/08/17 06:12:56;;;;;;;12.85;10.07;;;;;21.70;96528.00;;;;8341134;28;20209;-69
2023/08/17 06:16:59;;;;;;;12.15;9.75;;;;;21.90;96536.00;;;;8349178;28;20296;-68
2023/08/17 06:21:04;;;;;;;17.65;10.23;;;;;22.10;96536.00;;;;8343618;28;20299;-69
2023/08/17 06:25:10;;;;;;;16.65;11.63;;;;;22.30;96536.00;;;;8335939;28;20476;-69
2023/08/17 06:29:16;;;;;;;16.92;11.07;;;;;22.60;96536.00;;;;8345278;28;20235;-68
2023/08/17 06:33:19;;;;;;;13.90;10.30;;;;;22.80;96534.00;;;;8354107;28;20750;-69
2023/08/17 06:37:26;;;;;;;11.60;10.30;;;;;22.90;96532.00;;;;8349430;28;20204;-70
2023/08/17 06:41:35;;;;;;;13.60;9.52;;;;;23.20;96529.00;;;;8344698;28;20672;-69
2023/08/17 06:45:40;;;;;;;10.27;9.18;;;;;23.50;96537.00;;;;8347853;28;20207;-69
2023/08/17 06:49:43;;;;;;;14.02;9.57;;;;;23.80;96545.00;;;;8347793;28;20513;-69
2023/08/17 06:53:52;;;;;;;15.60;10.00;;;;;24.30;96540.00;;;;8347039;28;20577;-68
2023/08/17 06:57:56;;;;;;;14.93;9.52;;;;;24.60;96549.00;;;;8336861;28;20203;-69
2023/08/17 07:02:02;;;;;;;10.90;9.52;;;;;24.90;96545.00;;;;8352426;28;20762;-69
2023/08/17 07:06:10;;;;;;;11.77;9.63;;;;;25.20;96559.00;;;;8338410;28;20192;-69
2023/08/17 07:10:16;;;;;;;11.77;9.25;;;;;25.60;96557.00;;;;8350816;28;20671;-70
2023/08/17 07:14:28;;;;;;;15.98;10.52;;;;;26.00;96556.00;;;;8355850;28;20599;-69
2023/08/17 07:18:34;;;;;;;20.10;10.32;;;;;26.20;96562.00;;;;8350630;28;20197;-69
2023/08/17 07:22:39;;;;;;;14.70;10.25;;;;;26.50;96562.00;;;;8353073;28;20659;-70
2023/08/17 07:26:44;;;;;;;18.65;9.43;;;;;27.20;96557.00;;;;8347676;28;20228;-70
2023/08/17 07:30:48;;;;;;;11.95;10.05;;;;;28.20;96565.00;;;;8346220;28;20275;-69
2023/08/17 07:34:51;;;;;;;14.55;9.85;;;;;29.00;96571.00;;;;8349410;28;20209;-69
2023/08/17 07:38:55;;;;;;;13.60;9.82;;;;;29.60;96576.00;;;;8350192;28;20201;-70
2023/08/17 07:43:11;;;;;;;11.65;9.15;;;;;30.40;96573.00;;;;8347772;28;20201;-70
2023/08/17 07:47:14;;;;;;;17.58;9.68;;;;;30.80;96578.00;;;;8348641;28;20230;-70
2023/08/17 07:51:19;;;;;;;12.80;9.85;;;;;31.10;96579.00;;;;8353950;28;20666;-70
2023/08/17 07:55:23;;;;;;;11.43;9.32;;;;;30.90;96581.00;;;;8345053;28;20284;-71
2023/08/17 07:59:27;;;;;;;11.50;8.73;;;;;31.10;96579.00;;;;8347344;28;20193;-71
2023/08/17 08:03:33;;;;;;;12.10;9.23;;;;;31.40;96573.00;;;;8332229;28;20684;-70
2023/08/17 08:07:36;;;;;;;10.57;9.13;;;;;31.50;96564.00;;;;8348572;28;20342;-70
2023/08/17 08:11:39;;;;;;;11.55;9.15;;;;;31.60;96568.00;;;;8336131;28;20205;-71
2023/08/17 08:15:45;;;;;;;9.45;8.45;;;;;31.70;96564.00;;;;8338782;28;20928;-71
2023/08/17 08:19:50;;;;;;;10.75;9.32;;;;;32.30;96562.00;;;;8347307;28;20201;-70
2023/08/17 08:23:59;;;;;;;11.82;8.35;;;;;32.50;96568.00;;;;8342503;28;20208;-71
2023/08/17 08:28:05;;;;;;;11.95;8.30;;;;;32.60;96562.00;;;;8342984;28;20221;-71
2023/08/17 08:32:10;;;;;;;10.55;8.73;;;;;32.70;96568.00;;;;8343004;28;20309;-71
2023/08/17 08:36:15;;;;;;;10.63;8.50;;;;;32.80;96578.00;;;;8348611;28;20279;-71
2023/08/17 08:40:20;;;;;;;14.38;8.48;;;;;32.90;96573.00;;;;8343444;28;20300;-71
2023/08/17 08:44:24;;;;;;;8.85;8.00;;;;;33.10;96563.00;;;;8341137;28;20201;-71
2023/08/17 08:48:32;;;;;;;10.02;8.68;;;;;33.30;96567.00;;;;8334194;28;20341;-71
2023/08/17 08:52:36;;;;;;;13.00;9.63;;;;;33.50;96564.00;;;;8343071;28;20303;-70
2023/08/17 08:56:46;;;;;;;16.60;8.82;;;;;33.80;96579.00;;;;8337724;28;20228;-71
2023/08/17 09:00:53;;;;;;;14.60;10.27;;;;;33.90;96575.00;;;;8332045;28;20601;-72
2023/08/17 09:04:58;;;;;;;13.48;9.57;;;;;34.00;96574.00;;;;8340324;28;20233;-72
2023/08/17 09:09:03;;;;;;;10.13;9.02;;;;;34.20;96564.00;;;;8342602;28;20243;-71
2023/08/17 09:13:06;;;;;;;12.80;9.32;;;;;34.20;96565.00;;;;8338654;28;20211;-72
2023/08/17 09:17:10;;;;;;;12.77;8.95;;;;;34.40;96567.00;;;;8330319;28;20242;-71
2023/08/17 09:21:23;;;;;;;14.32;9.30;;;;;34.80;96562.00;;;;8334702;28;20251;-71
2023/08/17 09:25:26;;;;;;;11.00;9.07;;;;;35.00;96562.00;;;;8337995;28;20193;-72
2023/08/17 09:29:33;;;;;;;12.52;9.65;;;;;35.10;96556.00;;;;8341066;28;20225;-72
2023/08/17 09:33:36;;;;;;;11.63;9.15;;;;;35.20;96552.00;;;;8321051;28;20193;-71
2023/08/17 09:37:41;;;;;;;11.32;9.13;;;;;35.50;96552.00;;;;8309560;28;20395;-71
2023/08/17 09:41:45;;;;;;;9.75;8.75;;;;;35.90;96556.00;;;;8336930;28;20201;-73
2023/08/17 09:45:49;;;;;;;10.95;7.90;;;;;36.10;96550.00;;;;8324214;28;20205;-71
2023/08/17 09:49:55;;;;;;;10.98;8.20;;;;;36.00;96543.00;;;;8336545;28;20224;-72
2023/08/17 09:54:00;;;;;;;10.07;8.52;;;;;35.90;96551.00;;;;8332608;28;20232;-78
2023/08/17 09:58:05;;;;;;;11.43;7.60;;;;;36.00;96549.00;;;;8342194;28;20203;-79
2023/08/17 10:02:17;;;;;;;12.35;8.05;;;;;36.10;96547.00;;;;8342658;28;20663;-77
2023/08/17 10:06:27;;;;;;;11.38;7.68;;;;;36.10;96550.00;;;;8339567;28;20641;-80
2023/08/17 10:10:35;;;;;;;11.20;8.18;;;;;36.40;96546.00;;;;8341987;28;20263;-77
2023/08/17 10:14:46;;;;;;;9.93;7.95;;;;;36.60;96550.00;;;;8341853;28;20201;-77
2023/08/17 10:19:00;;;;;;;9.00;8.00;;;;;36.60;96550.00;;;;8344017;28;20232;-77
2023/08/17 10:23:11;;;;;;;10.38;7.85;;;;;36.50;96544.00;;;;8343667;28;20205;-77
2023/08/17 10:27:18;;;;;;;8.23;7.25;;;;;36.90;96546.00;;;;8348193;28;20194;-78
2023/08/17 10:31:23;;;;;;;8.05;7.15;;;;;37.00;96547.00;;;;8350171;28;20201;-78
2023/08/17 10:35:27;;;;;;;11.43;7.97;;;;;37.10;96544.00;;;;8351378;28;20200;-77
2023/08/17 10:39:31;;;;;;;8.80;7.53;;;;;37.40;96533.00;;;;8347389;28;20727;-78
2023/08/17 10:43:35;;;;;;;8.10;7.30;;;;;37.20;96532.00;;;;8346062;28;20250;-78
2023/08/17 10:47:39;;;;;;;8.93;7.47;;;;;37.10;96534.00;;;;8347916;28;20199;-78
2023/08/17 10:52:01;;;;;;;10.13;7.30;;;;;37.10;96536.00;;;;8324529;28;20209;-77
2023/08/17 10:56:08;;;;;;;7.57;6.95;;;;;37.10;96535.00;;;;8339889;28;20227;-77
2023/08/17 11:00:24;;;;;;;9.23;7.20;;;;;37.20;96529.00;;;;8338355;28;20208;-78
2023/08/17 11:04:34;;;;;;;10.73;8.05;;;;;37.40;96529.00;;;;8343508;28;20224;-77
2023/08/17 11:08:41;;;;;;;8.77;6.50;;;;;37.30;96526.00;;;;8351636;28;20311;-77
2023/08/17 11:12:45;;;;;;;8.63;7.70;;;;;37.30;96528.00;;;;8345791;28;20619;-78
2023/08/17 11:16:56;;;;;;;9.15;8.23;;;;;37.60;96533.00;;;;8346121;28;20204;-79
2023/08/17 11:21:01;;;;;;;11.05;7.35;;;;;37.70;96528.00;;;;8341562;28;20295;-77
2023/08/17 11:25:05;;;;;;;9.45;7.70;;;;;37.70;96521.00;;;;8347984;28;20973;-78
2023/08/17 11:29:09;;;;;;;7.00;6.30;;;;;37.80;96519.00;;;;8348001;28;20324;-77
2023/08/17 11:33:17;;;;;;;7.80;7.00;;;;;38.30;96518.00;;;;8344514;28;20211;-78
2023/08/17 11:37:23;;;;;;;7.20;6.22;;;;;38.80;96518.00;;;;8343059;28;20207;-78
2023/08/17 11:41:27;;;;;;;10.80;6.38;;;;;39.10;96520.00;;;;8344016;28;20196;-78
2023/08/17 11:45:30;;;;;;;6.78;6.07;;;;;39.10;96514.00;;;;8345417;28;20283;-78
2023/08/17 11:49:44;;;;;;;8.35;6.70;;;;;39.00;96510.00;;;;8350123;28;20232;-78
2023/08/17 11:53:49;;;;;;;6.30;5.70;;;;;39.60;96514.00;;;;8343726;28;20205;-78
2023/08/17 11:57:57;;;;;;;7.18;5.47;;;;;39.90;96507.00;;;;8346825;28;20232;-78
2023/08/17 12:02:02;;;;;;;6.68;6.03;;;;;39.60;96514.00;;;;8344647;28;20232;-78
2023/08/17 12:06:07;;;;;;;11.73;5.47;;;;;39.10;96504.00;;;;8347793;28;20290;-78
2023/08/17 12:10:14;;;;;;;6.53;5.72;;;;;38.60;96504.00;;;;8342962;28;20728;-76
2023/08/17 12:14:20;;;;;;;9.10;6.40;;;;;37.60;96502.00;;;;8343223;28;20929;-77
2023/08/17 12:18:31;;;;;;;11.35;6.85;;;;;36.50;96501.00;;;;8347559;28;20261;-77
2023/08/17 12:22:43;;;;;;;7.72;6.25;;;;;35.80;96493.00;;;;8343468;28;20671;-77
2023/08/17 12:26:48;;;;;;;7.60;6.60;;;;;35.60;96499.00;;;;8338727;28;20207;-77
2023/08/17 12:31:09;;;;;;;10.90;6.72;;;;;35.30;96477.00;;;;8348368;28;20425;-77
2023/08/17 12:35:12;;;;;;;11.45;6.53;;;;;35.00;96473.00;;;;8347961;28;20197;-77
2023/08/17 12:39:17;;;;;;;7.55;6.75;;;;;34.70;96464.00;;;;8336582;28;20712;-76
2023/08/17 12:43:20;;;;;;;11.88;7.13;;;;;34.60;96466.00;;;;8341302;28;20240;-77
2023/08/17 12:47:24;;;;;;;6.50;5.55;;;;;34.70;96463.00;;;;8335431;28;20228;-77
2023/08/17 12:51:27;;;;;;;9.30;6.00;;;;;34.80;96460.00;;;;8342153;28;20228;-76
2023/08/17 12:55:32;;;;;;;9.13;6.32;;;;;34.70;96455.00;;;;8344772;28;20236;-77
2023/08/17 12:59:35;;;;;;;8.77;6.28;;;;;34.60;96455.00;;;;8344243;28;20205;-76
2023/08/17 13:03:38;;;;;;;8.52;6.25;;;;;34.60;96448.00;;;;8345605;28;20426;-76
2023/08/17 13:07:44;;;;;;;6.22;5.63;;;;;34.80;96450.00;;;;8341965;28;20197;-77
2023/08/17 13:11:49;;;;;;;6.57;6.00;;;;;34.90;96439.00;;;;8342260;28;20228;-68
2023/08/17 13:15:52;;;;;;;12.65;6.35;;;;;34.90;96437.00;;;;8342214;28;20196;-65
2023/08/17 13:19:57;;;;;;;7.47;6.57;;;;;34.70;96435.00;;;;8343034;28;21115;-66
2023/08/17 13:24:02;;;;;;;9.30;6.45;;;;;34.50;96437.00;;;;8342121;28;20203;-65
2023/08/17 13:28:17;;;;;;;6.38;5.72;;;;;34.80;96428.00;;;;8340767;28;20205;-65
2023/08/17 13:32:21;;;;;;;7.00;6.30;;;;;35.10;96426.00;;;;8340357;28;20852;-66
2023/08/17 13:36:28;;;;;;;8.02;5.68;;;;;35.20;96428.00;;;;8342448;28;21030;-70
2023/08/17 13:40:33;;;;;;;8.55;5.72;;;;;35.60;96425.00;;;;8339959;28;20231;-70
2023/08/17 13:44:46;;;;;;;7.63;6.68;;;;;36.10;96409.00;;;;8342700;28;20287;-70
2023/08/17 13:48:51;;;;;;;10.43;6.32;;;;;36.60;96414.00;;;;8343693;28;20228;-69
2023/08/17 13:52:54;;;;;;;6.20;5.70;;;;;37.10;96416.00;;;;8345522;28;20666;-69
2023/08/17 13:57:00;;;;;;;12.75;4.95;;;;;37.50;96416.00;;;;8328821;28;20200;-70
2023/08/17 14:01:14;;;;;;;5.72;5.07;;;;;37.40;96410.00;;;;8344925;28;20205;-69
2023/08/17 14:05:19;;;;;;;8.27;5.97;;;;;37.10;96408.00;;;;8326425;28;20197;-69
2023/08/17 14:09:22;;;;;;;12.75;6.00;;;;;37.40;96408.00;;;;8350427;28;20315;-69
2023/08/17 14:13:27;;;;;;;6.03;5.53;;;;;38.00;96406.00;;;;8349846;28;20205;-69
2023/08/17 14:17:31;;;;;;;6.35;5.25;;;;;37.80;96399.00;;;;8347732;28;21034;-69
2023/08/17 14:21:38;;;;;;;8.02;4.95;;;;;37.60;96397.00;;;;8352329;28;20239;-69
2023/08/17 14:25:42;;;;;;;6.70;4.90;;;;;37.40;96390.00;;;;8349902;28;20283;-69
2023/08/17 14:29:45;;;;;;;6.97;5.13;;;;;37.30;96390.00;;;;8349513;28;20221;-69
2023/08/17 14:33:52;;;;;;;5.65;5.05;;;;;37.20;96383.00;;;;8344035;28;20201;-69
2023/08/17 14:38:00;;;;;;;6.13;4.78;;;;;37.60;96385.00;;;;8343394;28;20205;-70
2023/08/17 14:42:04;;;;;;;8.43;5.78;;;;;37.80;96378.00;;;;8344885;28;20207;-67
2023/08/17 14:46:11;;;;;;;6.05;5.35;;;;;37.60;96365.00;;;;8343596;28;20295;-67
2023/08/17 14:50:20;;;;;;;8.60;5.43;;;;;37.50;96368.00;;;;8347817;28;20243;-68
2023/08/17 14:54:25;;;;;;;6.68;4.82;;;;;37.50;96360.00;;;;8348326;28;20200;-68
2023/08/17 14:58:28;;;;;;;9.95;5.72;;;;;37.80;96349.00;;;;8348454;28;20203;-68
2023/08/17 15:02:34;;;;;;;6.97;5.32;;;;;37.90;96333.00;;;;8348538;28;20331;-68
2023/08/17 15:06:39;;;;;;;6.43;4.82;;;;;38.10;96328.00;;;;8345703;28;20201;-68
2023/08/17 15:10:44;;;;;;;5.68;5.15;;;;;38.30;96329.00;;;;8346080;28;20228;-68
2023/08/17 15:14:47;;;;;;;7.82;5.10;;;;;38.00;96325.00;;;;8345370;28;20205;-66
2023/08/17 15:18:55;;;;;;;7.85;5.15;;;;;37.90;96312.00;;;;8344319;28;20232;-69
2023/08/17 15:23:03;;;;;;;5.07;4.68;;;;;37.80;96312.00;;;;8341001;28;20193;-69
2023/08/17 15:27:09;;;;;;;8.88;5.00;;;;;37.90;96319.00;;;;8323084;28;20263;-69
2023/08/17 15:31:13;;;;;;;5.45;4.95;;;;;37.80;96309.00;;;;8350261;28;20216;-69
2023/08/17 15:35:20;;;;;;;9.27;4.97;;;;;37.60;96315.00;;;;8346127;28;20216;-70
2023/08/17 15:39:25;;;;;;;4.75;4.35;;;;;37.50;96330.00;;;;8345566;28;20594;-71
2023/08/17 15:43:28;;;;;;;5.82;4.53;;;;;37.50;96340.00;;;;8328509;28;20196;-70
2023/08/17 15:47:31;;;;;;;5.32;4.75;;;;;37.70;96345.00;;;;8346724;28;20224;-69
2023/08/17 15:51:37;;;;;;;6.25;4.70;;;;;37.30;96350.00;;;;8347758;28;20323;-68
2023/08/17 15:55:42;;;;;;;5.10;4.68;;;;;36.80;96346.00;;;;8344536;28;20206;-70
2023/08/17 15:59:49;;;;;;;8.52;5.13;;;;;36.30;96354.00;;;;8345386;28;20740;-68
2023/08/17 16:03:56;;;;;;;6.03;4.43;;;;;36.10;96362.00;;;;8343245;28;20311;-68
2023/08/17 16:07:59;;;;;;;5.13;4.72;;;;;36.30;96366.00;;;;8342969;28;20248;-70
2023/08/17 16:12:05;;;;;;;5.75;4.68;;;;;36.60;96360.00;;;;8355996;28;20238;-69
2023/08/17 16:16:12;;;;;;;7.70;4.72;;;;;36.40;96382.00;;;;8348123;28;20320;-70
2023/08/17 16:20:22;;;;;;;5.60;5.05;;;;;35.90;96388.00;;;;8345135;28;20242;-70
2023/08/17 16:24:26;;;;;;;6.05;4.78;;;;;35.30;96379.00;;;;8352904;28;20207;-70
2023/08/17 16:28:32;;;;;;;6.07;4.70;;;;;34.90;96374.00;;;;8359476;28;20785;-70
2023/08/17 16:32:38;;;;;;;7.25;5.28;;;;;34.40;96369.00;;;;8371180;28;20223;-70
2023/08/17 16:36:44;;;;;;;7.63;4.60;;;;;34.00;96374.00;;;;8350465;28;20879;-70
2023/08/17 16:40:49;;;;;;;5.15;4.72;;;;;33.50;96372.00;;;;8348184;28;20742;-70
2023/08/17 16:44:56;;;;;;;8.32;4.90;;;;;32.90;96366.00;;;;8367514;28;20238;-70
2023/08/17 16:49:07;;;;;;;7.03;5.22;;;;;32.30;96363.00;;;;8369583;28;20196;-70
2023/08/17 16:53:12;;;;;;;12.93;5.40;;;;;32.00;96358.00;;;;8356070;28;20219;-70
2023/08/17 16:57:16;;;;;;;6.15;5.38;;;;;31.60;96370.00;;;;8360742;28;20224;-70
2023/08/17 17:01:26;;;;;;;5.93;5.30;;;;;31.20;96373.00;;;;8365948;28;20292;-69
2023/08/17 17:05:29;;;;;;;7.78;5.35;;;;;30.80;96397.00;;;;8360923;28;20205;-69
2023/08/17 17:09:37;;;;;;;9.68;5.20;;;;;30.40;96401.00;;;;8369281;28;20206;-69
2023/08/17 17:13:40;;;;;;;9.32;5.97;;;;;30.10;96394.00;;;;8363064;28;20231;-70
2023/08/17 17:17:46;;;;;;;6.43;5.50;;;;;29.80;96397.00;;;;8364739;28;20205;-69
2023/08/17 17:21:50;;;;;;;8.82;5.93;;;;;29.40;96407.00;;;;8370811;28;20200;-69
2023/08/17 17:25:54;;;;;;;8.27;6.22;;;;;29.10;96424.00;;;;8340890;28;20197;-69
2023/08/17 17:29:57;;;;;;;10.27;6.18;;;;;28.90;96459.00;;;;8370468;28;20236;-69
2023/08/17 17:34:07;;;;;;;5.88;5.28;;;;;28.70;96456.00;;;;8361875;28;20831;-68
2023/08/17 17:38:10;;;;;;;9.35;4.30;;;;;28.20;96468.00;;;;8382559;28;20210;-69
2023/08/17 17:42:15;;;;;;;5.88;4.15;;;;;27.80;96478.00;;;;8373775;28;20200;-68
2023/08/17 17:46:19;;;;;;;8.98;4.22;;;;;27.30;96479.00;;;;8367317;28;20237;-69
2023/08/17 17:50:24;;;;;;;5.05;4.55;;;;;27.00;96483.00;;;;8363299;28;20232;-69
2023/08/17 17:54:36;;;;;;;8.27;3.92;;;;;26.70;96491.00;;;;8358713;28;20204;-69
2023/08/17 17:58:40;;;;;;;5.10;3.95;;;;;26.40;96496.00;;;;8362614;28;20244;-68
2023/08/17 18:02:44;;;;;;;8.80;4.55;;;;;26.10;96511.00;;;;8359076;28;20229;-68
2023/08/17 18:06:48;;;;;;;4.68;4.28;;;;;25.80;96494.00;;;;8341547;28;20200;-68
2023/08/17 18:11:00;;;;;;;4.80;4.25;;;;;25.60;96493.00;;;;8344974;28;20696;-64
2023/08/17 18:15:09;;;;;;;9.07;4.72;;;;;25.30;96502.00;;;;8362748;28;20292;-68
2023/08/17 18:19:12;;;;;;;5.50;4.97;;;;;25.10;96507.00;;;;8344877;28;20208;-68
2023/08/17 18:23:20;;;;;;;7.75;4.88;;;;;24.90;96502.00;;;;8343809;28;20197;-68
2023/08/17 18:27:23;;;;;;;5.53;4.60;;;;;24.70;96500.00;;;;8349727;28;20848;-68
2023/08/17 18:31:27;;;;;;;5.78;4.25;;;;;24.60;96523.00;;;;8337319;28;20252;-67
2023/08/17 18:35:31;;;;;;;4.95;3.83;;;;;24.50;96520.00;;;;8353598;28;20290;-68
2023/08/17 18:39:36;;;;;;;4.13;3.83;;;;;24.40;96545.00;;;;8349036;28;20244;-68
2023/08/17 18:43:39;;;;;;;5.78;4.00;;;;;24.40;96564.00;;;;8350264;28;20192;-67
2023/08/17 18:47:42;;;;;;;4.10;3.70;;;;;24.40;96581.00;;;;8350223;28;20201;-68
2023/08/17 18:51:45;;;;;;;5.53;3.58;;;;;24.40;96648.00;;;;8350872;28;20247;-67
2023/08/17 18:55:53;;;;;;;4.20;2.90;;;;;24.40;96655.00;;;;8351572;28;20615;-67
2023/08/17 18:59:57;;;;;;;2.70;2.50;;;;;24.30;96642.00;;;;8341927;28;20645;-67
2023/08/17 19:04:00;;;;;;;2.63;2.47;;;;;24.10;96647.00;;;;8336998;28;20232;-67
2023/08/17 19:08:06;;;;;;;4.60;3.00;;;;;23.70;96652.00;;;;8347923;28;20201;-67
2023/08/17 19:12:11;;;;;;;3.75;3.10;;;;;23.40;96675.00;;;;8348573;28;20237;-67
2023/08/17 19:16:15;;;;;;;3.53;3.00;;;;;23.30;96694.00;;;;8345863;28;20642;-66
2023/08/17 19:20:18;;;;;;;4.93;3.65;;;;;23.20;96705.00;;;;8346013;28;20286;-66
2023/08/17 19:24:21;;;;;;;3.78;3.47;;;;;23.10;96718.00;;;;8352703;28;20200;-66
2023/08/17 19:28:26;;;;;;;3.28;3.08;;;;;23.10;96742.00;;;;8349395;28;20197;-66
2023/08/17 19:32:29;;;;;;;3.47;2.75;;;;;23.10;96732.00;;;;8346138;28;20307;-66
2023/08/17 19:36:36;;;;;;;3.30;3.00;;;;;23.10;96721.00;;;;8352849;28;20222;-67
2023/08/17 19:40:40;;;;;;;4.72;3.08;;;;;23.00;96716.00;;;;8359735;28;20194;-66
2023/08/17 19:44:45;;;;;;;3.92;2.47;;;;;22.70;96704.00;;;;8352948;28;20242;-69
2023/08/17 19:48:50;;;;;;;3.00;2.78;;;;;22.40;96690.00;;;;8351535;28;20204;-68
2023/08/17 19:52:55;;;;;;;4.53;2.80;;;;;22.10;96685.00;;;;8366188;28;20263;-67
2023/08/17 19:57:00;;;;;;;3.42;3.13;;;;;22.00;96675.00;;;;8355752;28;20835;-67
2023/08/17 20:01:12;;;;;;;4.35;2.65;;;;;21.90;96662.00;;;;8337356;28;20284;-68
2023/08/17 20:05:15;;;;;;;3.13;2.70;;;;;21.90;96659.00;;;;8345806;28;20915;-67
2023/08/17 20:09:19;;;;;;;3.28;2.72;;;;;21.90;96668.00;;;;8348316;28;20320;-67
2023/08/17 20:13:23;;;;;;;2.90;2.70;;;;;21.80;96660.00;;;;8331139;28;20571;-68
2023/08/17 20:17:33;;;;;;;2.33;2.22;;;;;21.80;96658.00;;;;8345777;28;20274;-68